createdAt,value
2023-02-11T00:00:59.593Z,-1.7
2023-02-11T00:01:59.803Z,-1.8
2023-02-11T00:03:00.312Z,-1.8
2023-02-11T00:04:00.650Z,-1.8
2023-02-11T00:05:00.815Z,-1.8
2023-02-11T00:06:01.009Z,-1.8
2023-02-11T00:07:01.206Z,-1.8
2023-02-11T00:08:01.364Z,-1.8
2023-02-11T00:09:01.545Z,-1.8
2023-02-11T00:10:01.706Z,-1.8
2023-02-11T00:11:01.880Z,-1.8
2023-02-11T00:12:02.024Z,-1.8
2023-02-11T00:13:02.225Z,-1.8
2023-02-11T00:14:02.430Z,-1.8
2023-02-11T00:15:02.610Z,-1.8
2023-02-11T00:16:02.764Z,-1.8
2023-02-11T00:17:02.980Z,-1.8
2023-02-11T00:18:03.254Z,-1.8
2023-02-11T00:19:03.445Z,-1.8
2023-02-11T00:20:07.247Z,-1.8
2023-02-11T00:21:08.510Z,-1.9
2023-02-11T00:22:08.672Z,-1.9
2023-02-11T00:23:08.822Z,-1.9
2023-02-11T00:24:08.970Z,-1.9
2023-02-11T00:25:09.143Z,-1.9
2023-02-11T00:26:09.292Z,-1.9
2023-02-11T00:27:09.452Z,-1.9
2023-02-11T00:28:09.652Z,-1.9
2023-02-11T00:29:09.947Z,-1.9
2023-02-11T00:30:10.102Z,-1.9
2023-02-11T00:31:10.628Z,-1.9
2023-02-11T00:32:11.054Z,-2
2023-02-11T00:33:11.229Z,-2
2023-02-11T00:34:11.374Z,-2
2023-02-11T00:35:11.522Z,-2
2023-02-11T00:36:11.670Z,-2
2023-02-11T00:37:11.835Z,-2
2023-02-11T00:38:11.981Z,-2
2023-02-11T00:39:12.123Z,-2
2023-02-11T00:40:12.294Z,-2
2023-02-11T00:41:12.457Z,-2
2023-02-11T00:42:12.621Z,-2
2023-02-11T00:43:12.783Z,-2
2023-02-11T00:44:12.928Z,-2
2023-02-11T00:45:13.080Z,-2
2023-02-11T00:46:13.388Z,-2
2023-02-11T00:47:13.634Z,-2
2023-02-11T00:48:13.783Z,-2
2023-02-11T00:49:13.927Z,-2
2023-02-11T00:50:14.111Z,-2
2023-02-11T00:51:14.276Z,-2
2023-02-11T00:52:14.438Z,-2.09
2023-02-11T00:53:14.806Z,-2.09
2023-02-11T00:54:14.962Z,-2.09
2023-02-11T00:55:15.126Z,-2.09
2023-02-11T00:56:15.281Z,-2.09
2023-02-11T00:57:15.427Z,-2.09
2023-02-11T00:58:15.573Z,-2.09
2023-02-11T00:59:15.723Z,-2.09
2023-02-11T01:00:15.879Z,-2.09
2023-02-11T01:01:16.140Z,-2.09
2023-02-11T01:02:16.397Z,-2.09
2023-02-11T01:03:16.540Z,-2.09
2023-02-11T01:04:16.703Z,-2.09
2023-02-11T01:05:16.973Z,-2.09
2023-02-11T01:06:17.205Z,-2.09
2023-02-11T01:07:17.368Z,-2.09
2023-02-11T01:08:17.520Z,-2.09
2023-02-11T01:09:17.693Z,-2.09
2023-02-11T01:10:17.848Z,-2.09
2023-02-11T01:11:17.988Z,-2.09
2023-02-11T01:12:18.140Z,-2.2
2023-02-11T01:13:18.300Z,-2.2
2023-02-11T01:14:18.444Z,-2.2
2023-02-11T01:15:18.593Z,-2.2
2023-02-11T01:16:19.037Z,-2.2
2023-02-11T01:17:19.384Z,-2.2
2023-02-11T01:18:19.557Z,-2.2
2023-02-11T01:19:19.720Z,-2.2
2023-02-11T01:20:19.870Z,-2.2
2023-02-11T01:21:20.024Z,-2.2
2023-02-11T01:22:20.185Z,-2.3
2023-02-11T01:23:20.382Z,-2.3
2023-02-11T01:24:20.530Z,-2.3
2023-02-11T01:25:20.703Z,-2.3
2023-02-11T01:26:20.849Z,-2.3
2023-02-11T01:27:20.999Z,-2.3
2023-02-11T01:28:21.353Z,-2.3
2023-02-11T01:29:21.666Z,-2.3
2023-02-11T01:30:21.844Z,-2.3
2023-02-11T01:31:22.215Z,-2.3
2023-02-11T01:32:22.427Z,-2.3
2023-02-11T01:33:22.570Z,-2.3
2023-02-11T01:34:22.757Z,-2.3
2023-02-11T01:35:22.923Z,-2.3
2023-02-11T01:36:23.070Z,-2.3
2023-02-11T01:37:23.229Z,-2.3
2023-02-11T01:38:23.386Z,-2.3
2023-02-11T01:39:23.590Z,-2.3
2023-02-11T01:40:23.757Z,-2.3
2023-02-11T01:41:23.913Z,-2.4
2023-02-11T01:42:24.090Z,-2.4
2023-02-11T01:43:24.332Z,-2.4
2023-02-11T01:44:24.489Z,-2.4
2023-02-11T01:45:24.647Z,-2.4
2023-02-11T01:46:24.928Z,-2.4
2023-02-11T01:47:25.224Z,-2.4
2023-02-11T01:48:25.378Z,-2.4
2023-02-11T01:49:25.589Z,-2.4
2023-02-11T01:50:25.901Z,-2.4
2023-02-11T01:51:26.089Z,-2.5
2023-02-11T01:52:26.243Z,-2.5
2023-02-11T01:53:26.400Z,-2.5
2023-02-11T01:54:26.559Z,-2.5
2023-02-11T01:55:26.754Z,-2.5
2023-02-11T01:56:27.131Z,-2.5
2023-02-11T01:57:27.332Z,-2.5
2023-02-11T01:58:27.480Z,-2.5
2023-02-11T01:59:27.623Z,-2.5
2023-02-11T02:00:27.788Z,-2.5
2023-02-11T02:01:28.036Z,-2.5
2023-02-11T02:02:28.233Z,-2.5
2023-02-11T02:03:28.492Z,-2.5
2023-02-11T02:04:28.751Z,-2.5
2023-02-11T02:05:28.905Z,-2.5
2023-02-11T02:06:29.063Z,-2.5
2023-02-11T02:07:29.217Z,-2.5
2023-02-11T02:08:29.382Z,-2.5
2023-02-11T02:09:29.553Z,-2.5
2023-02-11T02:10:29.711Z,-2.5
2023-02-11T02:11:29.852Z,-2.5
2023-02-11T02:12:30.011Z,-2.5
2023-02-11T02:13:30.190Z,-2.5
2023-02-11T02:14:30.338Z,-2.5
2023-02-11T02:15:30.489Z,-2.5
2023-02-11T02:16:30.816Z,-2.5
2023-02-11T02:17:31.110Z,-2.5
2023-02-11T02:18:31.351Z,-2.5
2023-02-11T02:19:31.514Z,-2.5
2023-02-11T02:20:31.655Z,-2.5
2023-02-11T02:21:31.827Z,-2.6
2023-02-11T02:22:31.987Z,-2.6
2023-02-11T02:23:32.138Z,-2.6
2023-02-11T02:24:32.286Z,-2.6
2023-02-11T02:25:32.436Z,-2.6
2023-02-11T02:26:32.586Z,-2.6
2023-02-11T02:27:32.774Z,-2.6
2023-02-11T02:28:33.084Z,-2.6
2023-02-11T02:29:33.300Z,-2.6
2023-02-11T02:30:33.522Z,-2.6
2023-02-11T02:31:34.031Z,-2.7
2023-02-11T02:32:34.225Z,-2.7
2023-02-11T02:33:34.407Z,-2.7
2023-02-11T02:34:34.558Z,-2.7
2023-02-11T02:35:34.745Z,-2.7
2023-02-11T02:36:34.905Z,-2.7
2023-02-11T02:37:35.132Z,-2.7
2023-02-11T02:38:35.266Z,-2.7
2023-02-11T02:39:35.424Z,-2.7
2023-02-11T02:40:35.597Z,-2.7
2023-02-11T02:41:35.778Z,-2.7
2023-02-11T02:42:35.973Z,-2.7
2023-02-11T02:43:36.134Z,-2.7
2023-02-11T02:44:36.294Z,-2.7
2023-02-11T02:45:36.445Z,-2.7
2023-02-11T02:46:36.804Z,-2.7
2023-02-11T02:47:37.098Z,-2.7
2023-02-11T02:48:37.260Z,-2.7
2023-02-11T02:49:37.441Z,-2.7
2023-02-11T02:50:37.601Z,-2.7
2023-02-11T02:51:37.785Z,-2.8
2023-02-11T02:52:37.937Z,-2.8
2023-02-11T02:53:38.091Z,-2.8
2023-02-11T02:54:38.249Z,-2.8
2023-02-11T02:55:38.398Z,-2.8
2023-02-11T02:56:38.569Z,-2.8
2023-02-11T02:57:38.732Z,-2.8
2023-02-11T02:58:38.886Z,-2.8
2023-02-11T02:59:39.049Z,-2.8
2023-02-11T03:00:39.333Z,-2.8
2023-02-11T03:01:39.556Z,-2.9
2023-02-11T03:02:39.709Z,-2.9
2023-02-11T03:03:39.936Z,-2.9
2023-02-11T03:04:40.203Z,-2.9
2023-02-11T03:05:40.358Z,-2.9
2023-02-11T03:06:40.504Z,-2.9
2023-02-11T03:07:40.674Z,-2.9
2023-02-11T03:08:40.819Z,-2.9
2023-02-11T03:09:40.953Z,-2.9
2023-02-11T03:10:41.107Z,-2.9
2023-02-11T03:11:41.262Z,-2.9
2023-02-11T03:12:41.410Z,-2.9
2023-02-11T03:13:41.681Z,-2.9
2023-02-11T03:14:42.033Z,-2.9
2023-02-11T03:15:42.222Z,-2.9
2023-02-11T03:16:42.460Z,-2.9
2023-02-11T03:17:42.707Z,-2.9
2023-02-11T03:18:42.849Z,-2.9
2023-02-11T03:19:42.982Z,-2.9
2023-02-11T03:20:43.138Z,-2.9
2023-02-11T03:21:43.288Z,-2.9
2023-02-11T03:22:43.441Z,-2.9
2023-02-11T03:23:43.606Z,-2.9
2023-02-11T03:24:43.758Z,-2.9
2023-02-11T03:25:43.920Z,-2.9
2023-02-11T03:26:44.080Z,-2.9
2023-02-11T03:27:44.232Z,-2.9
2023-02-11T03:28:44.391Z,-2.9
2023-02-11T03:29:44.576Z,-2.9
2023-02-11T03:30:44.838Z,-2.9
2023-02-11T03:31:45.260Z,-2.9
2023-02-11T03:32:45.629Z,-2.9
2023-02-11T03:33:45.795Z,-2.9
2023-02-11T03:34:45.940Z,-2.9
2023-02-11T03:35:46.102Z,-2.9
2023-02-11T03:36:46.248Z,-2.9
2023-02-11T03:37:46.404Z,-2.9
2023-02-11T03:38:46.563Z,-2.9
2023-02-11T03:39:46.740Z,-2.9
2023-02-11T03:40:46.891Z,-2.9
2023-02-11T03:41:47.041Z,-3
2023-02-11T03:42:47.187Z,-3
2023-02-11T03:43:47.331Z,-3
2023-02-11T03:44:47.499Z,-3
2023-02-11T03:45:48.116Z,-3
2023-02-11T03:46:48.916Z,-3
2023-02-11T03:47:49.059Z,-3
2023-02-11T03:48:49.204Z,-3
2023-02-11T03:49:49.363Z,-3
2023-02-11T03:50:49.513Z,-3
2023-02-11T03:51:49.675Z,-3
2023-02-11T03:52:49.873Z,-3
2023-02-11T03:53:50.085Z,-3
2023-02-11T03:54:50.289Z,-3
2023-02-11T03:55:51.210Z,-3
2023-02-11T03:56:51.981Z,-3
2023-02-11T03:57:52.139Z,-3
2023-02-11T03:58:52.292Z,-3
2023-02-11T03:59:52.462Z,-3
2023-02-11T04:00:52.706Z,-3
2023-02-11T04:01:52.919Z,-3
2023-02-11T04:02:53.182Z,-3
2023-02-11T04:03:53.377Z,-3
2023-02-11T04:04:53.537Z,-3
2023-02-11T04:05:53.689Z,-3
2023-02-11T04:06:53.859Z,-3
2023-02-11T04:07:54.029Z,-3
2023-02-11T04:08:54.184Z,-3
2023-02-11T04:09:54.366Z,-3
2023-02-11T04:10:54.525Z,-3
2023-02-11T04:11:54.714Z,-3
2023-02-11T04:12:54.947Z,-3
2023-02-11T04:13:55.133Z,-3
2023-02-11T04:14:55.287Z,-3
2023-02-11T04:15:55.446Z,-3
2023-02-11T04:16:55.604Z,-3
2023-02-11T04:17:55.837Z,-3
2023-02-11T04:18:56.015Z,-3
2023-02-11T04:19:56.167Z,-3
2023-02-11T04:20:56.344Z,-3
2023-02-11T04:21:56.500Z,-3.1
2023-02-11T04:22:56.649Z,-3.1
2023-02-11T04:23:56.817Z,-3.1
2023-02-11T04:24:56.974Z,-3.1
2023-02-11T04:25:57.123Z,-3.1
2023-02-11T04:26:57.270Z,-3.1
2023-02-11T04:27:57.569Z,-3.1
2023-02-11T04:28:57.813Z,-3.1
2023-02-11T04:29:57.959Z,-3.1
2023-02-11T04:30:58.200Z,-3.1
2023-02-11T04:31:58.514Z,-3.1
2023-02-11T04:32:58.787Z,-3.1
2023-02-11T04:33:58.943Z,-3.1
2023-02-11T04:34:59.097Z,-3.1
2023-02-11T04:35:59.249Z,-3.1
2023-02-11T04:36:59.398Z,-3.1
2023-02-11T04:37:59.569Z,-3.1
2023-02-11T04:38:59.730Z,-3.1
2023-02-11T04:39:59.896Z,-3.1
2023-02-11T04:41:00.043Z,-3.1
2023-02-11T04:42:00.222Z,-3.2
2023-02-11T04:43:00.377Z,-3.2
2023-02-11T04:44:00.535Z,-3.2
2023-02-11T04:45:00.685Z,-3.2
2023-02-11T04:46:00.959Z,-3.2
2023-02-11T04:47:01.166Z,-3.2
2023-02-11T04:48:01.341Z,-3.2
2023-02-11T04:49:01.528Z,-3.2
2023-02-11T04:50:01.702Z,-3.2
2023-02-11T04:51:01.859Z,-3.2
2023-02-11T04:52:02.017Z,-3.2
2023-02-11T04:53:02.216Z,-3.2
2023-02-11T04:54:02.394Z,-3.2
2023-02-11T04:55:02.536Z,-3.2
2023-02-11T04:56:02.693Z,-3.2
2023-02-11T04:57:02.861Z,-3.2
2023-02-11T04:58:03.024Z,-3.2
2023-02-11T04:59:03.173Z,-3.2
2023-02-11T05:00:03.340Z,-3.2
2023-02-11T05:01:03.535Z,-3.2
2023-02-11T05:02:03.736Z,-3.2
2023-02-11T05:03:03.884Z,-3.2
2023-02-11T05:04:04.150Z,-3.2
2023-02-11T05:05:04.341Z,-3.2
2023-02-11T05:06:04.489Z,-3.2
2023-02-11T05:07:04.647Z,-3.2
2023-02-11T05:08:04.795Z,-3.2
2023-02-11T05:09:04.940Z,-3.2
2023-02-11T05:10:05.100Z,-3.2
2023-02-11T05:11:05.260Z,-3.2
2023-02-11T05:12:05.409Z,-3.2
2023-02-11T05:13:05.560Z,-3.2
2023-02-11T05:14:05.786Z,-3.2
2023-02-11T05:15:05.996Z,-3.2
2023-02-11T05:16:06.155Z,-3.2
2023-02-11T05:17:06.315Z,-3.2
2023-02-11T05:18:06.472Z,-3.2
2023-02-11T05:19:06.619Z,-3.2
2023-02-11T05:20:06.788Z,-3.2
2023-02-11T05:21:06.937Z,-3.2
2023-02-11T05:22:07.106Z,-3.3
2023-02-11T05:23:07.257Z,-3.3
2023-02-11T05:24:07.423Z,-3.3
2023-02-11T05:25:07.699Z,-3.3
2023-02-11T05:26:07.982Z,-3.3
2023-02-11T05:27:08.179Z,-3.3
2023-02-11T05:28:08.493Z,-3.3
2023-02-11T05:29:08.778Z,-3.3
2023-02-11T05:30:08.935Z,-3.3
2023-02-11T05:31:09.261Z,-3.3
2023-02-11T05:32:09.584Z,-3.3
2023-02-11T05:33:09.737Z,-3.3
2023-02-11T05:34:09.890Z,-3.3
2023-02-11T05:35:10.071Z,-3.3
2023-02-11T05:36:10.240Z,-3.3
2023-02-11T05:37:10.459Z,-3.3
2023-02-11T05:38:10.666Z,-3.3
2023-02-11T05:39:10.820Z,-3.3
2023-02-11T05:40:10.970Z,-3.3
2023-02-11T05:41:11.156Z,-3.3
2023-02-11T05:42:11.459Z,-3.3
2023-02-11T05:43:11.849Z,-3.3
2023-02-11T05:44:12.002Z,-3.3
2023-02-11T05:45:12.153Z,-3.3
2023-02-11T05:46:12.421Z,-3.3
2023-02-11T05:47:12.674Z,-3.3
2023-02-11T05:48:12.824Z,-3.3
2023-02-11T05:49:12.984Z,-3.3
2023-02-11T05:50:13.153Z,-3.3
2023-02-11T05:51:13.309Z,-3.3
2023-02-11T05:52:13.461Z,-3.3
2023-02-11T05:53:13.703Z,-3.3
2023-02-11T05:54:13.980Z,-3.3
2023-02-11T05:55:14.195Z,-3.3
2023-02-11T05:56:14.382Z,-3.3
2023-02-11T05:57:14.536Z,-3.3
2023-02-11T05:58:14.708Z,-3.3
2023-02-11T05:59:14.926Z,-3.3
2023-02-11T06:00:15.140Z,-3.3
2023-02-11T06:01:15.343Z,-3.3
2023-02-11T06:02:15.621Z,-3.3
2023-02-11T06:03:15.958Z,-3.3
2023-02-11T06:04:16.170Z,-3.3
2023-02-11T06:05:16.354Z,-3.3
2023-02-11T06:06:16.501Z,-3.3
2023-02-11T06:07:16.647Z,-3.3
2023-02-11T06:08:16.795Z,-3.3
2023-02-11T06:09:16.963Z,-3.3
2023-02-11T06:10:17.127Z,-3.3
2023-02-11T06:11:17.300Z,-3.3
2023-02-11T06:12:17.443Z,-3.3
2023-02-11T06:13:17.591Z,-3.3
2023-02-11T06:14:17.768Z,-3.3
2023-02-11T06:15:17.912Z,-3.3
2023-02-11T06:16:18.150Z,-3.3
2023-02-11T06:17:18.383Z,-3.3
2023-02-11T06:18:18.541Z,-3.3
2023-02-11T06:19:18.702Z,-3.3
2023-02-11T06:20:18.846Z,-3.3
2023-02-11T06:21:18.988Z,-3.3
2023-02-11T06:22:19.137Z,-3.3
2023-02-11T06:23:19.279Z,-3.3
2023-02-11T06:25:00.168Z,-3.3
2023-02-11T06:26:02.337Z,-3.2
2023-02-11T06:27:02.483Z,-3.2
2023-02-11T06:28:02.754Z,-3.2
2023-02-11T06:29:03.109Z,-3.2
2023-02-11T06:30:03.248Z,-3.2
2023-02-11T06:31:03.639Z,-3.2
2023-02-11T06:32:04.134Z,-3.2
2023-02-11T06:33:04.582Z,-3.2
2023-02-11T06:34:04.730Z,-3.2
2023-02-11T06:35:04.879Z,-3.2
2023-02-11T06:36:05.043Z,-3.2
2023-02-11T06:37:05.195Z,-3.2
2023-02-11T06:38:05.347Z,-3.2
2023-02-11T06:39:05.509Z,-3.2
2023-02-11T06:40:05.672Z,-3.2
2023-02-11T06:41:05.835Z,-3.2
2023-02-11T06:42:08.096Z,-3.2
2023-02-11T06:43:08.239Z,-3.2
2023-02-11T06:44:08.387Z,-3.2
2023-02-11T06:45:08.539Z,-3.2
2023-02-11T06:46:08.797Z,-3.2
2023-02-11T06:47:09.019Z,-3.2
2023-02-11T06:48:09.195Z,-3.2
2023-02-11T06:49:09.354Z,-3.2
2023-02-11T06:50:09.511Z,-3.2
2023-02-11T06:51:09.695Z,-3.2
2023-02-11T06:52:09.864Z,-3.3
2023-02-11T06:53:10.014Z,-3.3
2023-02-11T06:54:10.166Z,-3.3
2023-02-11T06:55:10.348Z,-3.3
2023-02-11T06:56:10.522Z,-3.3
2023-02-11T06:57:10.679Z,-3.3
2023-02-11T06:58:10.857Z,-3.3
2023-02-11T06:59:11.006Z,-3.3
2023-02-11T07:00:11.200Z,-3.3
2023-02-11T07:01:11.385Z,-3.3
2023-02-11T07:02:11.715Z,-3.3
2023-02-11T07:03:12.181Z,-3.3
2023-02-11T07:04:12.469Z,-3.3
2023-02-11T07:05:12.645Z,-3.3
2023-02-11T07:06:12.797Z,-3.3
2023-02-11T07:07:12.970Z,-3.3
2023-02-11T07:08:13.117Z,-3.3
2023-02-11T07:09:13.274Z,-3.3
2023-02-11T07:10:13.447Z,-3.3
2023-02-11T07:11:13.614Z,-3.3
2023-02-11T07:12:13.778Z,-3.4
2023-02-11T07:13:13.920Z,-3.4
2023-02-11T07:14:14.074Z,-3.4
2023-02-11T07:15:14.228Z,-3.4
2023-02-11T07:16:14.504Z,-3.4
2023-02-11T07:17:14.821Z,-3.4
2023-02-11T07:18:14.950Z,-3.4
2023-02-11T07:19:15.106Z,-3.4
2023-02-11T07:20:15.267Z,-3.4
2023-02-11T07:21:15.440Z,-3.4
2023-02-11T07:22:15.585Z,-3.3
2023-02-11T07:23:15.748Z,-3.3
2023-02-11T07:24:15.906Z,-3.3
2023-02-11T07:25:16.063Z,-3.3
2023-02-11T07:26:16.216Z,-3.3
2023-02-11T07:27:16.494Z,-3.3
2023-02-11T07:28:16.829Z,-3.3
2023-02-11T07:29:17.048Z,-3.3
2023-02-11T07:30:17.190Z,-3.3
2023-02-11T07:31:17.578Z,-3.3
2023-02-11T07:32:18.146Z,-3.3
2023-02-11T07:33:18.457Z,-3.3
2023-02-11T07:34:18.832Z,-3.3
2023-02-11T07:35:19.031Z,-3.3
2023-02-11T07:36:19.181Z,-3.3
2023-02-11T07:37:19.337Z,-3.3
2023-02-11T07:38:19.513Z,-3.3
2023-02-11T07:39:19.671Z,-3.3
2023-02-11T07:40:19.841Z,-3.3
2023-02-11T07:41:20.027Z,-3.2
2023-02-11T07:42:20.244Z,-3.2
2023-02-11T07:43:20.399Z,-3.2
2023-02-11T07:44:20.583Z,-3.2
2023-02-11T07:45:20.746Z,-3.2
2023-02-11T07:46:21.009Z,-3.2
2023-02-11T07:47:21.328Z,-3.2
2023-02-11T07:48:21.483Z,-3.2
2023-02-11T07:49:21.643Z,-3.2
2023-02-11T07:50:21.797Z,-3.2
2023-02-11T07:51:21.949Z,-3
2023-02-11T07:52:22.110Z,-3
2023-02-11T07:53:22.263Z,-3
2023-02-11T07:54:22.413Z,-3
2023-02-11T07:55:22.576Z,-3
2023-02-11T07:56:22.744Z,-3
2023-02-11T07:57:22.926Z,-3
2023-02-11T07:58:23.141Z,-3
2023-02-11T07:59:23.338Z,-3
2023-02-11T08:00:23.544Z,-3
2023-02-11T08:01:23.839Z,-2.7
2023-02-11T08:02:24.337Z,-2.7
2023-02-11T08:03:24.646Z,-2.7
2023-02-11T08:04:24.812Z,-2.7
2023-02-11T08:05:24.959Z,-2.7
2023-02-11T08:06:25.126Z,-2.7
2023-02-11T08:07:25.303Z,-2.7
2023-02-11T08:08:25.483Z,-2.7
2023-02-11T08:09:25.667Z,-2.7
2023-02-11T08:10:25.852Z,-2.7
2023-02-11T08:11:26.025Z,-2.5
2023-02-11T08:12:26.220Z,-2.5
2023-02-11T08:13:26.389Z,-2.5
2023-02-11T08:14:26.566Z,-2.5
2023-02-11T08:15:26.742Z,-2.5
2023-02-11T08:16:27.256Z,-2.5
2023-02-11T08:17:27.546Z,-2.5
2023-02-11T08:18:27.729Z,-2.5
2023-02-11T08:19:27.893Z,-2.5
2023-02-11T08:20:28.077Z,-2.5
2023-02-11T08:21:28.224Z,-2.09
2023-02-11T08:22:28.414Z,-2.09
2023-02-11T08:23:28.564Z,-2.09
2023-02-11T08:24:28.722Z,-2.09
2023-02-11T08:25:28.893Z,-2.09
2023-02-11T08:26:29.091Z,-2.09
2023-02-11T08:27:29.279Z,-2.09
2023-02-11T08:28:29.630Z,-2.09
2023-02-11T08:29:29.935Z,-2.09
2023-02-11T08:30:30.099Z,-2.09
2023-02-11T08:31:30.610Z,-1.1
2023-02-11T08:32:31.171Z,-1.1
2023-02-11T08:33:31.314Z,-1.1
2023-02-11T08:34:31.476Z,-1.1
2023-02-11T08:35:31.636Z,-1.1
2023-02-11T08:36:31.795Z,-1.1
2023-02-11T08:37:33.247Z,-1.1
2023-02-11T08:38:33.399Z,-1.1
2023-02-11T08:39:33.548Z,-0.1
2023-02-11T08:40:33.719Z,-0.1
2023-02-11T08:41:33.871Z,-0.1
2023-02-11T08:42:34.049Z,-0.1
2023-02-11T08:43:34.195Z,-0.1
2023-02-11T08:44:34.341Z,-0.1
2023-02-11T08:45:34.588Z,-0.1
2023-02-11T08:46:34.948Z,-0.1
2023-02-11T08:47:35.094Z,-0.1
2023-02-11T08:48:35.267Z,-0.1
2023-02-11T08:49:35.436Z,0.8
2023-02-11T08:50:35.616Z,0.8
2023-02-11T08:51:35.792Z,0.8
2023-02-11T08:52:35.936Z,0.8
2023-02-11T08:53:36.087Z,0.8
2023-02-11T08:54:36.241Z,0.8
2023-02-11T08:55:36.398Z,0.8
2023-02-11T08:56:36.559Z,0.8
2023-02-11T08:57:36.714Z,0.8
2023-02-11T08:58:36.866Z,0.8
2023-02-11T08:59:37.023Z,1.7
2023-02-11T09:00:37.194Z,1.7
2023-02-11T09:01:37.463Z,1.7
2023-02-11T09:02:38.026Z,1.7
2023-02-11T09:03:38.369Z,1.7
2023-02-11T09:04:38.717Z,1.7
2023-02-11T09:05:38.876Z,1.7
2023-02-11T09:06:39.044Z,1.7
2023-02-11T09:07:39.207Z,1.7
2023-02-11T09:08:39.381Z,1.7
2023-02-11T09:09:39.579Z,1.9
2023-02-11T09:10:39.763Z,1.9
2023-02-11T09:11:39.916Z,1.9
2023-02-11T09:12:40.068Z,1.9
2023-02-11T09:13:40.256Z,1.9
2023-02-11T09:14:40.430Z,1.9
2023-02-11T09:15:40.597Z,1.9
2023-02-11T09:16:40.896Z,1.9
2023-02-11T09:17:41.110Z,1.9
2023-02-11T09:18:41.266Z,1.9
2023-02-11T09:19:41.425Z,2.3
2023-02-11T09:20:41.584Z,2.3
2023-02-11T09:21:41.745Z,2.3
2023-02-11T09:22:41.906Z,2.3
2023-02-11T09:23:42.065Z,2.3
2023-02-11T09:24:42.215Z,2.3
2023-02-11T09:25:42.376Z,2.3
2023-02-11T09:26:42.532Z,2.3
2023-02-11T09:27:42.686Z,2.3
2023-02-11T09:28:42.829Z,2.3
2023-02-11T09:29:42.982Z,2.5
2023-02-11T09:30:43.415Z,2.5
2023-02-11T09:31:44.050Z,2.5
2023-02-11T09:32:44.431Z,2.5
2023-02-11T09:33:44.574Z,2.5
2023-02-11T09:34:44.726Z,2.5
2023-02-11T09:35:44.867Z,2.5
2023-02-11T09:36:45.021Z,2.5
2023-02-11T09:37:45.203Z,2.5
2023-02-11T09:38:45.358Z,2.5
2023-02-11T09:39:45.547Z,3.1
2023-02-11T09:40:45.700Z,3.1
2023-02-11T09:41:45.856Z,3.1
2023-02-11T09:42:46.021Z,3.1
2023-02-11T09:43:46.205Z,3.1
2023-02-11T09:44:46.359Z,3.1
2023-02-11T09:45:46.569Z,3.1
2023-02-11T09:46:46.842Z,3.1
2023-02-11T09:47:47.079Z,4.1
2023-02-11T09:48:47.234Z,4.1
2023-02-11T09:49:47.395Z,4.1
2023-02-11T09:50:47.552Z,4.1
2023-02-11T09:51:47.700Z,4.1
2023-02-11T09:52:47.940Z,4.1
2023-02-11T09:53:48.273Z,4.1
2023-02-11T09:54:48.432Z,4.1
2023-02-11T09:55:48.585Z,5.1
2023-02-11T09:56:48.750Z,5.1
2023-02-11T09:57:48.903Z,5.1
2023-02-11T09:58:49.087Z,5.1
2023-02-11T09:59:49.248Z,5.1
2023-02-11T10:00:50.080Z,5.1
2023-02-11T10:01:51.093Z,5.1
2023-02-11T10:02:51.467Z,5.1
2023-02-11T10:03:51.626Z,5.1
2023-02-11T10:04:51.784Z,5.1
2023-02-11T10:05:51.953Z,5.8
2023-02-11T10:06:52.122Z,5.8
2023-02-11T10:07:52.289Z,5.8
2023-02-11T10:08:52.452Z,5.8
2023-02-11T10:09:52.612Z,5.8
2023-02-11T10:10:53.779Z,5.8
2023-02-11T10:11:54.466Z,5.8
2023-02-11T10:12:54.638Z,5.8
2023-02-11T10:13:54.792Z,5.8
2023-02-11T10:14:54.932Z,5.8
2023-02-11T10:15:55.377Z,6
2023-02-11T10:16:55.706Z,6
2023-02-11T10:17:55.856Z,6
2023-02-11T10:18:56.018Z,6
2023-02-11T10:19:56.169Z,6
2023-02-11T10:20:56.327Z,6
2023-02-11T10:21:56.482Z,6
2023-02-11T10:22:56.654Z,6
2023-02-11T10:23:56.807Z,6
2023-02-11T10:24:56.966Z,6
2023-02-11T10:25:57.137Z,6
2023-02-11T10:26:57.284Z,6
2023-02-11T10:27:57.593Z,6
2023-02-11T10:28:57.880Z,6
2023-02-11T10:29:58.027Z,6
2023-02-11T10:30:58.536Z,6
2023-02-11T10:31:59.171Z,6
2023-02-11T10:32:59.383Z,6
2023-02-11T10:33:59.550Z,6
2023-02-11T10:34:59.694Z,6
2023-02-11T10:35:59.899Z,5.9
2023-02-11T10:37:00.066Z,5.9
2023-02-11T10:38:00.217Z,5.9
2023-02-11T10:39:00.362Z,5.9
2023-02-11T10:40:00.522Z,5.9
2023-02-11T10:41:00.672Z,5.9
2023-02-11T10:42:00.838Z,5.9
2023-02-11T10:43:01.016Z,5.9
2023-02-11T10:44:01.178Z,5.9
2023-02-11T10:45:01.337Z,5.9
2023-02-11T10:46:01.548Z,6.3
2023-02-11T10:47:01.764Z,6.3
2023-02-11T10:48:01.911Z,6.3
2023-02-11T10:49:02.097Z,6.3
2023-02-11T10:50:02.259Z,6.3
2023-02-11T10:51:02.413Z,6.3
2023-02-11T10:52:02.552Z,6.3
2023-02-11T10:53:02.704Z,6.3
2023-02-11T10:54:02.845Z,6.3
2023-02-11T10:55:03.022Z,6.3
2023-02-11T10:56:03.173Z,6.5
2023-02-11T10:57:03.328Z,6.5
2023-02-11T10:58:03.500Z,6.5
2023-02-11T10:59:03.657Z,6.5
2023-02-11T11:00:03.852Z,6.5
2023-02-11T11:01:24.160Z,6.5
2023-02-11T11:02:25.282Z,6.3
2023-02-11T11:03:25.517Z,6.3
2023-02-11T11:04:25.765Z,6.3
2023-02-11T11:05:25.977Z,6.2
2023-02-11T11:06:26.113Z,6.2
2023-02-11T11:07:26.399Z,6.2
2023-02-11T11:08:26.566Z,6.2
2023-02-11T11:09:26.743Z,6.2
2023-02-11T11:10:26.898Z,6.2
2023-02-11T11:11:27.053Z,6.2
2023-02-11T11:12:27.246Z,6.2
2023-02-11T11:13:27.399Z,6.2
2023-02-11T11:14:27.552Z,6.2
2023-02-11T11:15:27.725Z,5.9
2023-02-11T11:16:28.131Z,5.9
2023-02-11T11:17:28.583Z,5.9
2023-02-11T11:18:28.740Z,5.9
2023-02-11T11:19:28.893Z,5.9
2023-02-11T11:20:29.066Z,5.9
2023-02-11T11:21:29.243Z,5.9
2023-02-11T11:22:29.390Z,5.9
2023-02-11T11:23:29.576Z,5.9
2023-02-11T11:24:29.766Z,5.9
2023-02-11T11:25:29.947Z,6.1
2023-02-11T11:26:30.122Z,6.1
2023-02-11T11:27:30.350Z,6.1
2023-02-11T11:28:30.607Z,6.1
2023-02-11T11:29:30.840Z,6.1
2023-02-11T11:30:31.063Z,6.1
2023-02-11T11:31:31.541Z,6.1
2023-02-11T11:32:31.935Z,6.1
2023-02-11T11:33:32.109Z,6.1
2023-02-11T11:34:32.252Z,6.1
2023-02-11T11:35:32.403Z,6.7
2023-02-11T11:36:32.558Z,6.7
2023-02-11T11:37:32.711Z,6.7
2023-02-11T11:38:32.902Z,6.7
2023-02-11T11:39:33.059Z,6.7
2023-02-11T11:40:33.224Z,6.7
2023-02-11T11:41:33.376Z,6.7
2023-02-11T11:42:33.548Z,6.7
2023-02-11T11:43:33.730Z,6.7
2023-02-11T11:44:33.926Z,6.7
2023-02-11T11:45:34.266Z,7.1
2023-02-11T11:46:34.557Z,7.1
2023-02-11T11:47:34.849Z,7.1
2023-02-11T11:48:35.012Z,7.1
2023-02-11T11:49:35.161Z,7.1
2023-02-11T11:50:35.334Z,7.1
2023-02-11T11:51:35.489Z,7.1
2023-02-11T11:52:35.646Z,7.1
2023-02-11T11:53:35.825Z,7.1
2023-02-11T11:54:35.992Z,7.1
2023-02-11T11:55:36.162Z,8.1
2023-02-11T11:56:36.332Z,8.1
2023-02-11T11:57:36.539Z,8.1
2023-02-11T11:58:36.834Z,8.1
2023-02-11T11:59:36.986Z,8.1
2023-02-11T12:00:37.138Z,9.1
2023-02-11T12:01:37.394Z,9.1
2023-02-11T12:02:37.689Z,9.1
2023-02-11T12:03:37.916Z,9.1
2023-02-11T12:04:38.061Z,9.1
2023-02-11T12:05:38.207Z,10.1
2023-02-11T12:06:38.358Z,10.1
2023-02-11T12:07:38.503Z,10.1
2023-02-11T12:08:38.653Z,10.1
2023-02-11T12:09:38.813Z,10.1
2023-02-11T12:10:38.964Z,11.1
2023-02-11T12:11:39.128Z,11.1
2023-02-11T12:12:39.302Z,11.1
2023-02-11T12:13:39.484Z,11.1
2023-02-11T12:14:39.635Z,11.1
2023-02-11T12:15:39.808Z,11.1
2023-02-11T12:16:40.065Z,12.1
2023-02-11T12:17:40.459Z,12.1
2023-02-11T12:18:40.619Z,12.1
2023-02-11T12:19:40.779Z,12.1
2023-02-11T12:20:40.927Z,12.1
2023-02-11T12:21:41.094Z,12.1
2023-02-11T12:22:41.246Z,12.1
2023-02-11T12:23:41.396Z,13.1
2023-02-11T12:24:41.549Z,13.1
2023-02-11T12:25:41.699Z,13.1
2023-02-11T12:26:41.857Z,13.1
2023-02-11T12:27:42.010Z,13.1
2023-02-11T12:28:42.175Z,13.1
2023-02-11T12:29:42.384Z,13.1
2023-02-11T12:30:42.595Z,13.1
2023-02-11T12:31:42.934Z,14.1
2023-02-11T12:32:43.159Z,14.1
2023-02-11T12:33:43.329Z,14.1
2023-02-11T12:34:43.496Z,14.1
2023-02-11T12:35:43.668Z,14.1
2023-02-11T12:36:43.816Z,14.1
2023-02-11T12:37:43.990Z,14.1
2023-02-11T12:38:44.143Z,14.1
2023-02-11T12:39:44.301Z,14.1
2023-02-11T12:40:44.454Z,14.1
2023-02-11T12:41:44.600Z,14.9
2023-02-11T12:42:44.757Z,14.9
2023-02-11T12:43:44.928Z,14.9
2023-02-11T12:44:45.073Z,14.9
2023-02-11T12:45:45.297Z,14.9
2023-02-11T12:46:45.540Z,14.9
2023-02-11T12:47:45.708Z,14.9
2023-02-11T12:48:45.889Z,14.9
2023-02-11T12:49:46.073Z,14.9
2023-02-11T12:50:46.220Z,14.9
2023-02-11T12:51:46.387Z,15.8
2023-02-11T12:52:46.570Z,15.8
2023-02-11T12:53:46.742Z,15.8
2023-02-11T12:54:46.924Z,15.8
2023-02-11T12:55:47.085Z,15.8
2023-02-11T12:56:47.255Z,15.8
2023-02-11T12:57:47.395Z,15.8
2023-02-11T12:58:47.645Z,15.8
2023-02-11T12:59:47.891Z,15.8
2023-02-11T13:00:48.402Z,15.8
2023-02-11T13:01:48.944Z,16.7
2023-02-11T13:02:49.268Z,16.7
2023-02-11T13:03:49.670Z,16.7
2023-02-11T13:04:49.833Z,16.7
2023-02-11T13:05:49.995Z,16.7
2023-02-11T13:06:50.148Z,16.7
2023-02-11T13:07:50.302Z,16.7
2023-02-11T13:08:50.474Z,16.7
2023-02-11T13:09:50.646Z,16.7
2023-02-11T13:10:51.439Z,16.7
2023-02-11T13:11:52.323Z,17.2
2023-02-11T13:12:52.474Z,17.2
2023-02-11T13:13:52.629Z,17.2
2023-02-11T13:14:52.899Z,17.2
2023-02-11T13:15:53.198Z,17.2
2023-02-11T13:16:53.582Z,17.2
2023-02-11T13:17:53.869Z,17.2
2023-02-11T13:18:54.029Z,17.2
2023-02-11T13:19:54.181Z,17.2
2023-02-11T13:20:54.346Z,17.2
2023-02-11T13:21:54.514Z,17.79
2023-02-11T13:22:54.662Z,17.79
2023-02-11T13:23:54.813Z,17.79
2023-02-11T13:24:54.963Z,17.79
2023-02-11T13:25:55.125Z,17.79
2023-02-11T13:26:55.298Z,17.79
2023-02-11T13:27:55.610Z,17.79
2023-02-11T13:28:55.850Z,17.79
2023-02-11T13:29:56.016Z,17.79
2023-02-11T13:30:56.467Z,17.79
2023-02-11T13:31:57.357Z,18.6
2023-02-11T13:32:57.833Z,18.6
2023-02-11T13:33:58.002Z,18.6